<?xml version="1.0" encoding="UTF-8" standalone="no" ?>
<gpx xmlns="http://www.topografix.com/GPX/1/1" xmlns:xsi="http://www.w3.org/2001/XMLSchema-instance" xsi:schemaLocation="http://www.topografix.com/GPX/1/1 http://www.topografix.com/GPX/1/1/gpx.xsd" version="1.1" creator="VisuGPX - https://www.visugpx.com">
  <metadata>
    <name>250501 Zillebeke Palingbeek Vaartstraat 15,04</name>
    <desc><![CDATA[250501 Départ et arrivée au parking du domaine provincial de Palingbeek,  Vaartstraat à Zillebeke 15,04 km]]></desc>
  </metadata>
  <trk>
    <name><![CDATA[250501 Zillebeke Palingbeek Vaartstraat 15,04 km-21261532]]></name>
    <trkseg>
      <trkpt lat="50.82228" lon="2.90538">
        <ele>35</ele>
        <time>2025-05-01T10:15:59Z</time>
      </trkpt>
      <trkpt lat="50.82222" lon="2.90593">
        <ele>35</ele>
        <time>2025-05-01T10:16:46Z</time>
      </trkpt>
      <trkpt lat="50.82213" lon="2.90595">
        <ele>35</ele>
        <time>2025-05-01T10:16:58Z</time>
      </trkpt>
      <trkpt lat="50.82194" lon="2.90565">
        <ele>35</ele>
        <time>2025-05-01T10:17:34Z</time>
      </trkpt>
      <trkpt lat="50.8216" lon="2.90657">
        <ele>35</ele>
        <time>2025-05-01T10:19:04Z</time>
      </trkpt>
      <trkpt lat="50.82142" lon="2.90575">
        <ele>35</ele>
        <time>2025-05-01T10:20:17Z</time>
      </trkpt>
      <trkpt lat="50.82042" lon="2.90367">
        <ele>32</ele>
        <time>2025-05-01T10:23:57Z</time>
      </trkpt>
      <trkpt lat="50.82028" lon="2.90334">
        <ele>32</ele>
        <time>2025-05-01T10:24:31Z</time>
      </trkpt>
      <trkpt lat="50.82002" lon="2.90325">
        <ele>33</ele>
        <time>2025-05-01T10:25:06Z</time>
      </trkpt>
      <trkpt lat="50.81994" lon="2.90338">
        <ele>34</ele>
        <time>2025-05-01T10:25:22Z</time>
      </trkpt>
      <trkpt lat="50.81855" lon="2.90608">
        <ele>38</ele>
        <time>2025-05-01T10:30:15Z</time>
      </trkpt>
      <trkpt lat="50.81825" lon="2.90549">
        <ele>41</ele>
        <time>2025-05-01T10:31:19Z</time>
      </trkpt>
      <trkpt lat="50.81995" lon="2.90253">
        <ele>34</ele>
        <time>2025-05-01T10:36:56Z</time>
      </trkpt>
      <trkpt lat="50.82006" lon="2.90223">
        <ele>35</ele>
        <time>2025-05-01T10:37:26Z</time>
      </trkpt>
      <trkpt lat="50.82018" lon="2.90166">
        <ele>35</ele>
        <time>2025-05-01T10:38:16Z</time>
      </trkpt>
      <trkpt lat="50.82006" lon="2.90082">
        <ele>36</ele>
        <time>2025-05-01T10:39:29Z</time>
      </trkpt>
      <trkpt lat="50.81986" lon="2.90038">
        <ele>35</ele>
        <time>2025-05-01T10:40:15Z</time>
      </trkpt>
      <trkpt lat="50.81973" lon="2.90005">
        <ele>34</ele>
        <time>2025-05-01T10:40:47Z</time>
      </trkpt>
      <trkpt lat="50.81983" lon="2.89943">
        <ele>29</ele>
        <time>2025-05-01T10:41:41Z</time>
      </trkpt>
      <trkpt lat="50.81967" lon="2.89925">
        <ele>28</ele>
        <time>2025-05-01T10:42:08Z</time>
      </trkpt>
      <trkpt lat="50.81937" lon="2.89932">
        <ele>30</ele>
        <time>2025-05-01T10:42:48Z</time>
      </trkpt>
      <trkpt lat="50.81902" lon="2.89934">
        <ele>30</ele>
        <time>2025-05-01T10:43:35Z</time>
      </trkpt>
      <trkpt lat="50.81883" lon="2.89928">
        <ele>29</ele>
        <time>2025-05-01T10:44:01Z</time>
      </trkpt>
      <trkpt lat="50.81857" lon="2.89993">
        <ele>31</ele>
        <time>2025-05-01T10:45:05Z</time>
      </trkpt>
      <trkpt lat="50.81792" lon="2.89934">
        <ele>28</ele>
        <time>2025-05-01T10:46:45Z</time>
      </trkpt>
      <trkpt lat="50.81737" lon="2.90035">
        <ele>30</ele>
        <time>2025-05-01T10:48:38Z</time>
      </trkpt>
      <trkpt lat="50.81623" lon="2.89904">
        <ele>30</ele>
        <time>2025-05-01T10:51:46Z</time>
      </trkpt>
      <trkpt lat="50.81569" lon="2.90062">
        <ele>33</ele>
        <time>2025-05-01T10:54:17Z</time>
      </trkpt>
      <trkpt lat="50.81646" lon="2.90181">
        <ele>32</ele>
        <time>2025-05-01T10:56:41Z</time>
      </trkpt>
      <trkpt lat="50.81624" lon="2.90249">
        <ele>34</ele>
        <time>2025-05-01T10:57:45Z</time>
      </trkpt>
      <trkpt lat="50.81705" lon="2.90359">
        <ele>31</ele>
        <time>2025-05-01T11:00:08Z</time>
      </trkpt>
      <trkpt lat="50.81643" lon="2.90517">
        <ele>38</ele>
        <time>2025-05-01T11:02:45Z</time>
      </trkpt>
      <trkpt lat="50.81633" lon="2.90556">
        <ele>40</ele>
        <time>2025-05-01T11:03:20Z</time>
      </trkpt>
      <trkpt lat="50.81655" lon="2.9057">
        <ele>41</ele>
        <time>2025-05-01T11:03:52Z</time>
      </trkpt>
      <trkpt lat="50.81666" lon="2.90561">
        <ele>40</ele>
        <time>2025-05-01T11:04:08Z</time>
      </trkpt>
      <trkpt lat="50.81692" lon="2.90616">
        <ele>43</ele>
        <time>2025-05-01T11:05:06Z</time>
      </trkpt>
      <trkpt lat="50.81659" lon="2.90678">
        <ele>44</ele>
        <time>2025-05-01T11:06:15Z</time>
      </trkpt>
      <trkpt lat="50.8165" lon="2.90687">
        <ele>43</ele>
        <time>2025-05-01T11:06:29Z</time>
      </trkpt>
      <trkpt lat="50.81629" lon="2.90701">
        <ele>43</ele>
        <time>2025-05-01T11:06:59Z</time>
      </trkpt>
      <trkpt lat="50.81602" lon="2.90746">
        <ele>42</ele>
        <time>2025-05-01T11:07:51Z</time>
      </trkpt>
      <trkpt lat="50.81596" lon="2.90779">
        <ele>43</ele>
        <time>2025-05-01T11:08:20Z</time>
      </trkpt>
      <trkpt lat="50.81565" lon="2.90879">
        <ele>45</ele>
        <time>2025-05-01T11:09:54Z</time>
      </trkpt>
      <trkpt lat="50.81471" lon="2.91179">
        <ele>48</ele>
        <time>2025-05-01T11:14:37Z</time>
      </trkpt>
      <trkpt lat="50.81405" lon="2.9141">
        <ele>50</ele>
        <time>2025-05-01T11:18:10Z</time>
      </trkpt>
      <trkpt lat="50.81313" lon="2.91726">
        <ele>52</ele>
        <time>2025-05-01T11:23:04Z</time>
      </trkpt>
      <trkpt lat="50.81338" lon="2.91743">
        <ele>51</ele>
        <time>2025-05-01T11:23:40Z</time>
      </trkpt>
      <trkpt lat="50.81323" lon="2.91807">
        <ele>53</ele>
        <time>2025-05-01T11:24:38Z</time>
      </trkpt>
      <trkpt lat="50.81314" lon="2.91915">
        <ele>54</ele>
        <time>2025-05-01T11:26:10Z</time>
      </trkpt>
      <trkpt lat="50.81308" lon="2.91935">
        <ele>54</ele>
        <time>2025-05-01T11:26:28Z</time>
      </trkpt>
      <trkpt lat="50.81281" lon="2.91964">
        <ele>53</ele>
        <time>2025-05-01T11:27:12Z</time>
      </trkpt>
      <trkpt lat="50.81264" lon="2.91994">
        <ele>52</ele>
        <time>2025-05-01T11:27:46Z</time>
      </trkpt>
      <trkpt lat="50.81244" lon="2.92041">
        <ele>51</ele>
        <time>2025-05-01T11:28:34Z</time>
      </trkpt>
      <trkpt lat="50.81214" lon="2.92137">
        <ele>51</ele>
        <time>2025-05-01T11:30:04Z</time>
      </trkpt>
      <trkpt lat="50.812" lon="2.92232">
        <ele>50</ele>
        <time>2025-05-01T11:31:26Z</time>
      </trkpt>
      <trkpt lat="50.81191" lon="2.92316">
        <ele>51</ele>
        <time>2025-05-01T11:32:38Z</time>
      </trkpt>
      <trkpt lat="50.81192" lon="2.92352">
        <ele>51</ele>
        <time>2025-05-01T11:33:08Z</time>
      </trkpt>
      <trkpt lat="50.81195" lon="2.92421">
        <ele>50</ele>
        <time>2025-05-01T11:34:07Z</time>
      </trkpt>
      <trkpt lat="50.81171" lon="2.92523">
        <ele>46</ele>
        <time>2025-05-01T11:35:38Z</time>
      </trkpt>
      <trkpt lat="50.81175" lon="2.92617">
        <ele>46</ele>
        <time>2025-05-01T11:36:58Z</time>
      </trkpt>
      <trkpt lat="50.81193" lon="2.92757">
        <ele>46</ele>
        <time>2025-05-01T11:38:58Z</time>
      </trkpt>
      <trkpt lat="50.81193" lon="2.92784">
        <ele>46</ele>
        <time>2025-05-01T11:39:21Z</time>
      </trkpt>
      <trkpt lat="50.81207" lon="2.92859">
        <ele>47</ele>
        <time>2025-05-01T11:40:27Z</time>
      </trkpt>
      <trkpt lat="50.81216" lon="2.92924">
        <ele>47</ele>
        <time>2025-05-01T11:41:23Z</time>
      </trkpt>
      <trkpt lat="50.81295" lon="2.93466">
        <ele>42</ele>
        <time>2025-05-01T11:49:12Z</time>
      </trkpt>
      <trkpt lat="50.81302" lon="2.935">
        <ele>42</ele>
        <time>2025-05-01T11:49:42Z</time>
      </trkpt>
      <trkpt lat="50.81336" lon="2.936">
        <ele>36</ele>
        <time>2025-05-01T11:51:18Z</time>
      </trkpt>
      <trkpt lat="50.81348" lon="2.93594">
        <ele>37</ele>
        <time>2025-05-01T11:51:35Z</time>
      </trkpt>
      <trkpt lat="50.81354" lon="2.93649">
        <ele>35</ele>
        <time>2025-05-01T11:52:22Z</time>
      </trkpt>
      <trkpt lat="50.81367" lon="2.93787">
        <ele>30</ele>
        <time>2025-05-01T11:54:20Z</time>
      </trkpt>
      <trkpt lat="50.81445" lon="2.93733">
        <ele>37</ele>
        <time>2025-05-01T11:56:13Z</time>
      </trkpt>
      <trkpt lat="50.81475" lon="2.93702">
        <ele>43</ele>
        <time>2025-05-01T11:57:01Z</time>
      </trkpt>
      <trkpt lat="50.81463" lon="2.93665">
        <ele>44</ele>
        <time>2025-05-01T11:57:36Z</time>
      </trkpt>
      <trkpt lat="50.81464" lon="2.93646">
        <ele>44</ele>
        <time>2025-05-01T11:57:52Z</time>
      </trkpt>
      <trkpt lat="50.81478" lon="2.93618">
        <ele>45</ele>
        <time>2025-05-01T11:58:22Z</time>
      </trkpt>
      <trkpt lat="50.81661" lon="2.93723">
        <ele>44</ele>
        <time>2025-05-01T12:02:42Z</time>
      </trkpt>
      <trkpt lat="50.81791" lon="2.93594">
        <ele>47</ele>
        <time>2025-05-01T12:06:07Z</time>
      </trkpt>
      <trkpt lat="50.81785" lon="2.93574">
        <ele>47</ele>
        <time>2025-05-01T12:06:25Z</time>
      </trkpt>
      <trkpt lat="50.81803" lon="2.93507">
        <ele>49</ele>
        <time>2025-05-01T12:07:27Z</time>
      </trkpt>
      <trkpt lat="50.81745" lon="2.93328">
        <ele>52</ele>
        <time>2025-05-01T12:10:16Z</time>
      </trkpt>
      <trkpt lat="50.81734" lon="2.93314">
        <ele>53</ele>
        <time>2025-05-01T12:10:35Z</time>
      </trkpt>
      <trkpt lat="50.81716" lon="2.93309">
        <ele>52</ele>
        <time>2025-05-01T12:11:00Z</time>
      </trkpt>
      <trkpt lat="50.81682" lon="2.93307">
        <ele>52</ele>
        <time>2025-05-01T12:11:45Z</time>
      </trkpt>
      <trkpt lat="50.81668" lon="2.93302">
        <ele>52</ele>
        <time>2025-05-01T12:12:04Z</time>
      </trkpt>
      <trkpt lat="50.81642" lon="2.93314">
        <ele>52</ele>
        <time>2025-05-01T12:12:40Z</time>
      </trkpt>
      <trkpt lat="50.81619" lon="2.93345">
        <ele>51</ele>
        <time>2025-05-01T12:13:21Z</time>
      </trkpt>
      <trkpt lat="50.81576" lon="2.93424">
        <ele>48</ele>
        <time>2025-05-01T12:14:49Z</time>
      </trkpt>
      <trkpt lat="50.81559" lon="2.93475">
        <ele>47</ele>
        <time>2025-05-01T12:15:37Z</time>
      </trkpt>
      <trkpt lat="50.81544" lon="2.93511">
        <ele>47</ele>
        <time>2025-05-01T12:16:13Z</time>
      </trkpt>
      <trkpt lat="50.81536" lon="2.93539">
        <ele>47</ele>
        <time>2025-05-01T12:16:39Z</time>
      </trkpt>
      <trkpt lat="50.81528" lon="2.93519">
        <ele>46</ele>
        <time>2025-05-01T12:16:59Z</time>
      </trkpt>
      <trkpt lat="50.81519" lon="2.93489">
        <ele>46</ele>
        <time>2025-05-01T12:17:27Z</time>
      </trkpt>
      <trkpt lat="50.81488" lon="2.93434">
        <ele>46</ele>
        <time>2025-05-01T12:18:30Z</time>
      </trkpt>
      <trkpt lat="50.81495" lon="2.93414">
        <ele>46</ele>
        <time>2025-05-01T12:18:49Z</time>
      </trkpt>
      <trkpt lat="50.81507" lon="2.93391">
        <ele>47</ele>
        <time>2025-05-01T12:19:14Z</time>
      </trkpt>
      <trkpt lat="50.81513" lon="2.93382">
        <ele>47</ele>
        <time>2025-05-01T12:19:25Z</time>
      </trkpt>
      <trkpt lat="50.8153" lon="2.9337">
        <ele>48</ele>
        <time>2025-05-01T12:19:50Z</time>
      </trkpt>
      <trkpt lat="50.81546" lon="2.93342">
        <ele>49</ele>
        <time>2025-05-01T12:20:22Z</time>
      </trkpt>
      <trkpt lat="50.81664" lon="2.93086">
        <ele>60</ele>
        <time>2025-05-01T12:24:49Z</time>
      </trkpt>
      <trkpt lat="50.81714" lon="2.92976">
        <ele>61</ele>
        <time>2025-05-01T12:26:43Z</time>
      </trkpt>
      <trkpt lat="50.81727" lon="2.9295">
        <ele>61</ele>
        <time>2025-05-01T12:27:11Z</time>
      </trkpt>
      <trkpt lat="50.81725" lon="2.92941">
        <ele>61</ele>
        <time>2025-05-01T12:27:19Z</time>
      </trkpt>
      <trkpt lat="50.81687" lon="2.92917">
        <ele>58</ele>
        <time>2025-05-01T12:28:14Z</time>
      </trkpt>
      <trkpt lat="50.81703" lon="2.92894">
        <ele>58</ele>
        <time>2025-05-01T12:28:42Z</time>
      </trkpt>
      <trkpt lat="50.81625" lon="2.92779">
        <ele>51</ele>
        <time>2025-05-01T12:31:05Z</time>
      </trkpt>
      <trkpt lat="50.81519" lon="2.92794">
        <ele>50</ele>
        <time>2025-05-01T12:33:27Z</time>
      </trkpt>
      <trkpt lat="50.81379" lon="2.92822">
        <ele>50</ele>
        <time>2025-05-01T12:36:35Z</time>
      </trkpt>
      <trkpt lat="50.81346" lon="2.92848">
        <ele>48</ele>
        <time>2025-05-01T12:37:24Z</time>
      </trkpt>
      <trkpt lat="50.81313" lon="2.9287">
        <ele>47</ele>
        <time>2025-05-01T12:38:12Z</time>
      </trkpt>
      <trkpt lat="50.81302" lon="2.92868">
        <ele>47</ele>
        <time>2025-05-01T12:38:27Z</time>
      </trkpt>
      <trkpt lat="50.81276" lon="2.92833">
        <ele>47</ele>
        <time>2025-05-01T12:39:12Z</time>
      </trkpt>
      <trkpt lat="50.81259" lon="2.92822">
        <ele>47</ele>
        <time>2025-05-01T12:39:37Z</time>
      </trkpt>
      <trkpt lat="50.81236" lon="2.92827">
        <ele>46</ele>
        <time>2025-05-01T12:40:08Z</time>
      </trkpt>
      <trkpt lat="50.81245" lon="2.92787">
        <ele>47</ele>
        <time>2025-05-01T12:40:44Z</time>
      </trkpt>
      <trkpt lat="50.81256" lon="2.92749">
        <ele>48</ele>
        <time>2025-05-01T12:41:19Z</time>
      </trkpt>
      <trkpt lat="50.81276" lon="2.92724">
        <ele>50</ele>
        <time>2025-05-01T12:41:53Z</time>
      </trkpt>
      <trkpt lat="50.81274" lon="2.92695">
        <ele>50</ele>
        <time>2025-05-01T12:42:18Z</time>
      </trkpt>
      <trkpt lat="50.81268" lon="2.9263">
        <ele>51</ele>
        <time>2025-05-01T12:43:13Z</time>
      </trkpt>
      <trkpt lat="50.81267" lon="2.92572">
        <ele>52</ele>
        <time>2025-05-01T12:44:02Z</time>
      </trkpt>
      <trkpt lat="50.81272" lon="2.92554">
        <ele>52</ele>
        <time>2025-05-01T12:44:18Z</time>
      </trkpt>
      <trkpt lat="50.81279" lon="2.92497">
        <ele>53</ele>
        <time>2025-05-01T12:45:07Z</time>
      </trkpt>
      <trkpt lat="50.8129" lon="2.92459">
        <ele>54</ele>
        <time>2025-05-01T12:45:43Z</time>
      </trkpt>
      <trkpt lat="50.81295" lon="2.92434">
        <ele>54</ele>
        <time>2025-05-01T12:46:05Z</time>
      </trkpt>
      <trkpt lat="50.81295" lon="2.92401">
        <ele>55</ele>
        <time>2025-05-01T12:46:33Z</time>
      </trkpt>
      <trkpt lat="50.81314" lon="2.92365">
        <ele>56</ele>
        <time>2025-05-01T12:47:12Z</time>
      </trkpt>
      <trkpt lat="50.81338" lon="2.92409">
        <ele>54</ele>
        <time>2025-05-01T12:48:01Z</time>
      </trkpt>
      <trkpt lat="50.81414" lon="2.92538">
        <ele>53</ele>
        <time>2025-05-01T12:50:30Z</time>
      </trkpt>
      <trkpt lat="50.81475" lon="2.92455">
        <ele>53</ele>
        <time>2025-05-01T12:52:17Z</time>
      </trkpt>
      <trkpt lat="50.81398" lon="2.92318">
        <ele>57</ele>
        <time>2025-05-01T12:54:52Z</time>
      </trkpt>
      <trkpt lat="50.81446" lon="2.92254">
        <ele>57</ele>
        <time>2025-05-01T12:56:16Z</time>
      </trkpt>
      <trkpt lat="50.81605" lon="2.92533">
        <ele>56</ele>
        <time>2025-05-01T13:01:32Z</time>
      </trkpt>
      <trkpt lat="50.8169" lon="2.92659">
        <ele>55</ele>
        <time>2025-05-01T13:04:08Z</time>
      </trkpt>
      <trkpt lat="50.8172" lon="2.92615">
        <ele>56</ele>
        <time>2025-05-01T13:05:02Z</time>
      </trkpt>
      <trkpt lat="50.81817" lon="2.92454">
        <ele>58</ele>
        <time>2025-05-01T13:08:10Z</time>
      </trkpt>
      <trkpt lat="50.81622" lon="2.92245">
        <ele>56</ele>
        <time>2025-05-01T13:13:24Z</time>
      </trkpt>
      <trkpt lat="50.81633" lon="2.92225">
        <ele>56</ele>
        <time>2025-05-01T13:13:47Z</time>
      </trkpt>
      <trkpt lat="50.81644" lon="2.9222">
        <ele>56</ele>
        <time>2025-05-01T13:14:02Z</time>
      </trkpt>
      <trkpt lat="50.81658" lon="2.92199">
        <ele>56</ele>
        <time>2025-05-01T13:14:28Z</time>
      </trkpt>
      <trkpt lat="50.81679" lon="2.92196">
        <ele>57</ele>
        <time>2025-05-01T13:14:56Z</time>
      </trkpt>
      <trkpt lat="50.81683" lon="2.92212">
        <ele>56</ele>
        <time>2025-05-01T13:15:10Z</time>
      </trkpt>
      <trkpt lat="50.8169" lon="2.92227">
        <ele>56</ele>
        <time>2025-05-01T13:15:26Z</time>
      </trkpt>
      <trkpt lat="50.81699" lon="2.92233">
        <ele>56</ele>
        <time>2025-05-01T13:15:39Z</time>
      </trkpt>
      <trkpt lat="50.8171" lon="2.92228">
        <ele>56</ele>
        <time>2025-05-01T13:15:54Z</time>
      </trkpt>
      <trkpt lat="50.81715" lon="2.92215">
        <ele>56</ele>
        <time>2025-05-01T13:16:07Z</time>
      </trkpt>
      <trkpt lat="50.81715" lon="2.92197">
        <ele>56</ele>
        <time>2025-05-01T13:16:22Z</time>
      </trkpt>
      <trkpt lat="50.81707" lon="2.92177">
        <ele>56</ele>
        <time>2025-05-01T13:16:42Z</time>
      </trkpt>
      <trkpt lat="50.81699" lon="2.92171">
        <ele>57</ele>
        <time>2025-05-01T13:16:54Z</time>
      </trkpt>
      <trkpt lat="50.81689" lon="2.9217">
        <ele>57</ele>
        <time>2025-05-01T13:17:07Z</time>
      </trkpt>
      <trkpt lat="50.8169" lon="2.92151">
        <ele>57</ele>
        <time>2025-05-01T13:17:23Z</time>
      </trkpt>
      <trkpt lat="50.81686" lon="2.92137">
        <ele>57</ele>
        <time>2025-05-01T13:17:36Z</time>
      </trkpt>
      <trkpt lat="50.81825" lon="2.91915">
        <ele>65</ele>
        <time>2025-05-01T13:22:00Z</time>
      </trkpt>
      <trkpt lat="50.81905" lon="2.91991">
        <ele>63</ele>
        <time>2025-05-01T13:24:04Z</time>
      </trkpt>
      <trkpt lat="50.81832" lon="2.92103">
        <ele>61</ele>
        <time>2025-05-01T13:26:20Z</time>
      </trkpt>
      <trkpt lat="50.81926" lon="2.92203">
        <ele>57</ele>
        <time>2025-05-01T13:28:51Z</time>
      </trkpt>
      <trkpt lat="50.81998" lon="2.92083">
        <ele>62</ele>
        <time>2025-05-01T13:31:11Z</time>
      </trkpt>
      <trkpt lat="50.81924" lon="2.92012">
        <ele>62</ele>
        <time>2025-05-01T13:33:06Z</time>
      </trkpt>
      <trkpt lat="50.82007" lon="2.91896">
        <ele>59</ele>
        <time>2025-05-01T13:35:34Z</time>
      </trkpt>
      <trkpt lat="50.82073" lon="2.91981">
        <ele>60</ele>
        <time>2025-05-01T13:37:28Z</time>
      </trkpt>
      <trkpt lat="50.82151" lon="2.91876">
        <ele>56</ele>
        <time>2025-05-01T13:39:44Z</time>
      </trkpt>
      <trkpt lat="50.82098" lon="2.91779">
        <ele>54</ele>
        <time>2025-05-01T13:41:32Z</time>
      </trkpt>
      <trkpt lat="50.82002" lon="2.91626">
        <ele>55</ele>
        <time>2025-05-01T13:44:34Z</time>
      </trkpt>
      <trkpt lat="50.82052" lon="2.91535">
        <ele>50</ele>
        <time>2025-05-01T13:46:16Z</time>
      </trkpt>
      <trkpt lat="50.8226" lon="2.91722">
        <ele>50</ele>
        <time>2025-05-01T13:51:35Z</time>
      </trkpt>
      <trkpt lat="50.82269" lon="2.91713">
        <ele>49</ele>
        <time>2025-05-01T13:51:49Z</time>
      </trkpt>
      <trkpt lat="50.82366" lon="2.91615">
        <ele>39</ele>
        <time>2025-05-01T13:54:23Z</time>
      </trkpt>
      <trkpt lat="50.82357" lon="2.91587">
        <ele>38</ele>
        <time>2025-05-01T13:54:49Z</time>
      </trkpt>
      <trkpt lat="50.82347" lon="2.91564">
        <ele>38</ele>
        <time>2025-05-01T13:55:13Z</time>
      </trkpt>
      <trkpt lat="50.82274" lon="2.91378">
        <ele>38</ele>
        <time>2025-05-01T13:58:17Z</time>
      </trkpt>
      <trkpt lat="50.82216" lon="2.9146">
        <ele>39</ele>
        <time>2025-05-01T14:00:01Z</time>
      </trkpt>
      <trkpt lat="50.82184" lon="2.91404">
        <ele>41</ele>
        <time>2025-05-01T14:01:05Z</time>
      </trkpt>
      <trkpt lat="50.82133" lon="2.91316">
        <ele>44</ele>
        <time>2025-05-01T14:02:45Z</time>
      </trkpt>
      <trkpt lat="50.82108" lon="2.91284">
        <ele>45</ele>
        <time>2025-05-01T14:03:28Z</time>
      </trkpt>
      <trkpt lat="50.82051" lon="2.91183">
        <ele>43</ele>
        <time>2025-05-01T14:05:23Z</time>
      </trkpt>
      <trkpt lat="50.82034" lon="2.91154">
        <ele>43</ele>
        <time>2025-05-01T14:05:56Z</time>
      </trkpt>
      <trkpt lat="50.81961" lon="2.91262">
        <ele>48</ele>
        <time>2025-05-01T14:08:09Z</time>
      </trkpt>
      <trkpt lat="50.81945" lon="2.91229">
        <ele>47</ele>
        <time>2025-05-01T14:08:44Z</time>
      </trkpt>
      <trkpt lat="50.81888" lon="2.91111">
        <ele>45</ele>
        <time>2025-05-01T14:10:50Z</time>
      </trkpt>
      <trkpt lat="50.81923" lon="2.91045">
        <ele>42</ele>
        <time>2025-05-01T14:12:02Z</time>
      </trkpt>
      <trkpt lat="50.81916" lon="2.9103">
        <ele>42</ele>
        <time>2025-05-01T14:12:18Z</time>
      </trkpt>
      <trkpt lat="50.8184" lon="2.90873">
        <ele>36</ele>
        <time>2025-05-01T14:15:05Z</time>
      </trkpt>
      <trkpt lat="50.81867" lon="2.90839">
        <ele>36</ele>
        <time>2025-05-01T14:15:51Z</time>
      </trkpt>
      <trkpt lat="50.81896" lon="2.90806">
        <ele>36</ele>
        <time>2025-05-01T14:16:38Z</time>
      </trkpt>
      <trkpt lat="50.81957" lon="2.90738">
        <ele>37</ele>
        <time>2025-05-01T14:18:18Z</time>
      </trkpt>
      <trkpt lat="50.82026" lon="2.90911">
        <ele>39</ele>
        <time>2025-05-01T14:21:10Z</time>
      </trkpt>
      <trkpt lat="50.82169" lon="2.91161">
        <ele>40</ele>
        <time>2025-05-01T14:25:55Z</time>
      </trkpt>
      <trkpt lat="50.82264" lon="2.91344">
        <ele>38</ele>
        <time>2025-05-01T14:29:14Z</time>
      </trkpt>
      <trkpt lat="50.82279" lon="2.91376">
        <ele>37</ele>
        <time>2025-05-01T14:29:48Z</time>
      </trkpt>
      <trkpt lat="50.82288" lon="2.91363">
        <ele>37</ele>
        <time>2025-05-01T14:30:04Z</time>
      </trkpt>
      <trkpt lat="50.82306" lon="2.91326">
        <ele>37</ele>
        <time>2025-05-01T14:30:44Z</time>
      </trkpt>
      <trkpt lat="50.82358" lon="2.91217">
        <ele>36</ele>
        <time>2025-05-01T14:32:39Z</time>
      </trkpt>
      <trkpt lat="50.82414" lon="2.91154">
        <ele>34</ele>
        <time>2025-05-01T14:34:10Z</time>
      </trkpt>
      <trkpt lat="50.82402" lon="2.9114">
        <ele>34</ele>
        <time>2025-05-01T14:34:30Z</time>
      </trkpt>
      <trkpt lat="50.82412" lon="2.91111">
        <ele>34</ele>
        <time>2025-05-01T14:34:58Z</time>
      </trkpt>
      <trkpt lat="50.82433" lon="2.91066">
        <ele>34</ele>
        <time>2025-05-01T14:35:45Z</time>
      </trkpt>
      <trkpt lat="50.82454" lon="2.91088">
        <ele>33</ele>
        <time>2025-05-01T14:36:19Z</time>
      </trkpt>
      <trkpt lat="50.8246" lon="2.91105">
        <ele>32</ele>
        <time>2025-05-01T14:36:35Z</time>
      </trkpt>
      <trkpt lat="50.825" lon="2.91064">
        <ele>31</ele>
        <time>2025-05-01T14:37:39Z</time>
      </trkpt>
      <trkpt lat="50.82567" lon="2.91001">
        <ele>29</ele>
        <time>2025-05-01T14:39:23Z</time>
      </trkpt>
      <trkpt lat="50.82368" lon="2.90789">
        <ele>36</ele>
        <time>2025-05-01T14:44:43Z</time>
      </trkpt>
      <trkpt lat="50.82341" lon="2.90752">
        <ele>37</ele>
        <time>2025-05-01T14:45:31Z</time>
      </trkpt>
      <trkpt lat="50.82327" lon="2.90726">
        <ele>37</ele>
        <time>2025-05-01T14:45:59Z</time>
      </trkpt>
      <trkpt lat="50.82321" lon="2.90732">
        <ele>37</ele>
        <time>2025-05-01T14:46:09Z</time>
      </trkpt>
      <trkpt lat="50.8234" lon="2.90763">
        <ele>37</ele>
        <time>2025-05-01T14:46:45Z</time>
      </trkpt>
      <trkpt lat="50.82382" lon="2.90817">
        <ele>36</ele>
        <time>2025-05-01T14:47:58Z</time>
      </trkpt>
      <trkpt lat="50.82367" lon="2.90831">
        <ele>36</ele>
        <time>2025-05-01T14:48:21Z</time>
      </trkpt>
      <trkpt lat="50.82311" lon="2.90887">
        <ele>36</ele>
        <time>2025-05-01T14:49:49Z</time>
      </trkpt>
      <trkpt lat="50.82251" lon="2.90943">
        <ele>36</ele>
        <time>2025-05-01T14:51:22Z</time>
      </trkpt>
      <trkpt lat="50.82244" lon="2.90928">
        <ele>36</ele>
        <time>2025-05-01T14:51:38Z</time>
      </trkpt>
      <trkpt lat="50.82226" lon="2.90913">
        <ele>37</ele>
        <time>2025-05-01T14:52:05Z</time>
      </trkpt>
      <trkpt lat="50.82212" lon="2.90884">
        <ele>37</ele>
        <time>2025-05-01T14:52:36Z</time>
      </trkpt>
      <trkpt lat="50.82207" lon="2.90838">
        <ele>37</ele>
        <time>2025-05-01T14:53:15Z</time>
      </trkpt>
      <trkpt lat="50.82193" lon="2.90843">
        <ele>37</ele>
        <time>2025-05-01T14:53:34Z</time>
      </trkpt>
      <trkpt lat="50.82177" lon="2.90841">
        <ele>37</ele>
        <time>2025-05-01T14:53:56Z</time>
      </trkpt>
      <trkpt lat="50.82165" lon="2.90837">
        <ele>37</ele>
        <time>2025-05-01T14:54:12Z</time>
      </trkpt>
      <trkpt lat="50.82155" lon="2.90825">
        <ele>37</ele>
        <time>2025-05-01T14:54:29Z</time>
      </trkpt>
      <trkpt lat="50.82148" lon="2.90812">
        <ele>37</ele>
        <time>2025-05-01T14:54:43Z</time>
      </trkpt>
      <trkpt lat="50.82186" lon="2.90774">
        <ele>37</ele>
        <time>2025-05-01T14:55:43Z</time>
      </trkpt>
      <trkpt lat="50.82184" lon="2.90765">
        <ele>37</ele>
        <time>2025-05-01T14:55:51Z</time>
      </trkpt>
      <trkpt lat="50.82169" lon="2.90718">
        <ele>36</ele>
        <time>2025-05-01T14:56:36Z</time>
      </trkpt>
      <trkpt lat="50.82156" lon="2.90654">
        <ele>35</ele>
        <time>2025-05-01T14:57:32Z</time>
      </trkpt>
      <trkpt lat="50.82139" lon="2.90578">
        <ele>35</ele>
        <time>2025-05-01T14:58:40Z</time>
      </trkpt>
      <trkpt lat="50.82123" lon="2.90544">
        <ele>34</ele>
        <time>2025-05-01T14:59:16Z</time>
      </trkpt>
      <trkpt lat="50.82105" lon="2.90546">
        <ele>33</ele>
        <time>2025-05-01T14:59:40Z</time>
      </trkpt>
      <trkpt lat="50.82079" lon="2.90552">
        <ele>33</ele>
        <time>2025-05-01T15:00:15Z</time>
      </trkpt>
      <trkpt lat="50.8206" lon="2.90562">
        <ele>34</ele>
        <time>2025-05-01T15:00:42Z</time>
      </trkpt>
      <trkpt lat="50.82005" lon="2.90603">
        <ele>35</ele>
        <time>2025-05-01T15:02:03Z</time>
      </trkpt>
      <trkpt lat="50.81995" lon="2.90604">
        <ele>35</ele>
        <time>2025-05-01T15:02:16Z</time>
      </trkpt>
      <trkpt lat="50.82086" lon="2.90859">
        <ele>39</ele>
        <time>2025-05-01T15:06:23Z</time>
      </trkpt>
      <trkpt lat="50.8211" lon="2.9084">
        <ele>38</ele>
        <time>2025-05-01T15:06:59Z</time>
      </trkpt>
      <trkpt lat="50.82127" lon="2.90828">
        <ele>37</ele>
        <time>2025-05-01T15:07:24Z</time>
      </trkpt>
      <trkpt lat="50.82192" lon="2.90764">
        <ele>37</ele>
        <time>2025-05-01T15:09:06Z</time>
      </trkpt>
      <trkpt lat="50.82212" lon="2.90726">
        <ele>37</ele>
        <time>2025-05-01T15:09:48Z</time>
      </trkpt>
      <trkpt lat="50.82235" lon="2.90725">
        <ele>37</ele>
        <time>2025-05-01T15:10:18Z</time>
      </trkpt>
      <trkpt lat="50.82266" lon="2.90781">
        <ele>38</ele>
        <time>2025-05-01T15:11:21Z</time>
      </trkpt>
      <trkpt lat="50.82278" lon="2.90779">
        <ele>38</ele>
        <time>2025-05-01T15:11:37Z</time>
      </trkpt>
      <trkpt lat="50.82296" lon="2.90769">
        <ele>37</ele>
        <time>2025-05-01T15:12:03Z</time>
      </trkpt>
      <trkpt lat="50.82305" lon="2.90763">
        <ele>37</ele>
        <time>2025-05-01T15:12:16Z</time>
      </trkpt>
      <trkpt lat="50.82316" lon="2.90735">
        <ele>37</ele>
        <time>2025-05-01T15:12:44Z</time>
      </trkpt>
      <trkpt lat="50.82304" lon="2.90722">
        <ele>37</ele>
        <time>2025-05-01T15:13:03Z</time>
      </trkpt>
      <trkpt lat="50.82295" lon="2.90685">
        <ele>37</ele>
        <time>2025-05-01T15:13:36Z</time>
      </trkpt>
      <trkpt lat="50.82296" lon="2.90671">
        <ele>36</ele>
        <time>2025-05-01T15:13:48Z</time>
      </trkpt>
      <trkpt lat="50.82291" lon="2.90655">
        <ele>36</ele>
        <time>2025-05-01T15:14:03Z</time>
      </trkpt>
      <trkpt lat="50.82285" lon="2.90658">
        <ele>36</ele>
        <time>2025-05-01T15:14:12Z</time>
      </trkpt>
      <trkpt lat="50.82278" lon="2.90644">
        <ele>36</ele>
        <time>2025-05-01T15:14:27Z</time>
      </trkpt>
      <trkpt lat="50.82265" lon="2.90628">
        <ele>36</ele>
        <time>2025-05-01T15:14:49Z</time>
      </trkpt>
      <trkpt lat="50.8224" lon="2.90642">
        <ele>36</ele>
        <time>2025-05-01T15:15:24Z</time>
      </trkpt>
      <trkpt lat="50.82234" lon="2.90626">
        <ele>36</ele>
        <time>2025-05-01T15:15:40Z</time>
      </trkpt>
      <trkpt lat="50.82231" lon="2.90613">
        <ele>36</ele>
        <time>2025-05-01T15:15:52Z</time>
      </trkpt>
      <trkpt lat="50.82226" lon="2.90601">
        <ele>35</ele>
        <time>2025-05-01T15:16:04Z</time>
      </trkpt>
      <trkpt lat="50.82232" lon="2.90547">
        <ele>35</ele>
        <time>2025-05-01T15:16:50Z</time>
      </trkpt>
    </trkseg>
  </trk>
</gpx>